Gondomar, Spain
Current Conditions -  °F | °C
As of 8:00 PM on Monday 20 Oct 2014 (Local Time) from LEVX Reporting Station
Clear Clear  
Wind Chill: 70°   Ceiling: Unl
Heat Index: 70°   Visibility: 6mi
Dew Point: 61°   Wind: 1mph
Humidity: 73%   Direction: NA
Pressure: 30.15"   Gusts: NA
Location:  42.11°N, 8.75°W
Report Text: LEVX 201800Z VRB01KT CAVOK 21/16 Q1021 NOSIG
Loading
Personal Weather Stations






























Interactive Weather Map New forecast layout! Learn more

10-Day Weather Forecast

Advertisements
Track Severe Weather on mobile